createdAt,value
2023-01-01T00:01:27.251Z,16.03
2023-01-01T00:03:55.352Z,9.50
2023-01-01T00:06:22.566Z,8.17
2023-01-01T00:09:09.681Z,7.40
2023-01-01T00:11:36.762Z,6.13
2023-01-01T00:14:10.149Z,5.87
2023-01-01T00:16:39.554Z,5.67
2023-01-01T00:19:06.639Z,4.90
2023-01-01T00:21:33.723Z,4.87
2023-01-01T00:24:00.804Z,4.20
2023-01-01T00:26:32.772Z,4.97
2023-01-01T00:29:02.484Z,4.53
2023-01-01T00:31:29.689Z,3.50
2023-01-01T00:33:57.003Z,4.67
2023-01-01T00:36:24.881Z,3.80
2023-01-01T00:38:52.176Z,3.50
2023-01-01T00:41:19.759Z,3.47
2023-01-01T00:43:47.242Z,3.30
2023-01-01T00:46:14.681Z,3.33
2023-01-01T00:48:41.934Z,2.93
2023-01-01T00:51:09.353Z,3.80
2023-01-01T00:53:36.678Z,3.67
2023-01-01T00:56:04.067Z,5.10
2023-01-01T00:58:31.147Z,5.60
2023-01-01T01:00:58.406Z,2.70
2023-01-01T01:03:28.571Z,3.13
2023-01-01T01:05:56.768Z,3.50
2023-01-01T01:08:30.241Z,3.13
2023-01-01T01:11:05.247Z,3.00
2023-01-01T01:13:32.546Z,2.70
2023-01-01T01:15:59.739Z,3.17
2023-01-01T01:18:26.975Z,2.90
2023-01-01T01:20:54.892Z,3.40
2023-01-01T01:23:22.272Z,3.30
2023-01-01T01:25:49.335Z,3.00
2023-01-01T01:28:16.439Z,3.40
2023-01-01T01:30:43.526Z,3.47
2023-01-01T01:33:10.654Z,3.10
2023-01-01T01:35:37.713Z,3.23
2023-01-01T01:38:04.818Z,2.90
2023-01-01T01:40:31.871Z,3.00
2023-01-01T01:42:58.965Z,2.70
2023-01-01T01:45:32.970Z,2.63
2023-01-01T01:48:00.801Z,2.80
2023-01-01T01:50:30.078Z,2.60
2023-01-01T01:53:15.886Z,2.80
2023-01-01T01:55:48.694Z,2.60
2023-01-01T01:58:16.237Z,2.30
2023-01-01T02:00:43.324Z,2.57
2023-01-01T02:03:13.179Z,2.50
2023-01-01T02:05:41.297Z,2.37
2023-01-01T02:08:09.650Z,2.60
2023-01-01T02:10:37.110Z,3.27
2023-01-01T02:13:04.192Z,3.67
2023-01-01T02:15:35.522Z,2.90
2023-01-01T02:18:13.254Z,2.10
2023-01-01T02:20:53.174Z,2.20
2023-01-01T02:23:30.631Z,1.90
2023-01-01T02:26:16.300Z,1.83
2023-01-01T02:29:02.056Z,1.77
2023-01-01T02:31:32.822Z,1.83
2023-01-01T02:34:02.169Z,1.60
2023-01-01T02:36:31.160Z,1.70
2023-01-01T02:38:59.391Z,1.60
2023-01-01T02:41:29.154Z,1.77
2023-01-01T02:48:52.551Z,1.50
2023-01-01T02:51:22.375Z,1.50
2023-01-01T02:54:08.007Z,1.30
2023-01-01T02:56:46.107Z,1.87
2023-01-01T02:59:35.180Z,1.30
2023-01-01T03:02:05.052Z,1.50
2023-01-01T03:04:38.204Z,1.30
2023-01-01T03:07:18.173Z,1.70
2023-01-01T03:09:56.203Z,1.40
2023-01-01T03:12:43.100Z,1.40
2023-01-01T03:15:19.066Z,1.40
2023-01-01T03:17:57.498Z,1.30
2023-01-01T03:20:27.612Z,1.10
2023-01-01T03:22:56.702Z,1.47
2023-01-01T03:25:26.304Z,1.30
2023-01-01T03:27:57.280Z,1.20
2023-01-01T03:30:24.580Z,1.10
2023-01-01T03:33:00.639Z,1.50
2023-01-01T03:35:40.057Z,1.43
2023-01-01T03:38:09.976Z,1.27
2023-01-01T03:40:38.133Z,1.20
2023-01-01T03:43:21.089Z,1.53
2023-01-01T03:45:49.508Z,1.40
2023-01-01T03:48:16.753Z,1.00
2023-01-01T03:51:01.932Z,1.20
2023-01-01T03:53:41.980Z,1.30
2023-01-01T03:56:18.392Z,1.50
2023-01-01T03:59:05.811Z,1.40
2023-01-01T04:01:34.387Z,1.30
2023-01-01T04:04:02.284Z,1.60
2023-01-01T04:06:29.462Z,1.37
2023-01-01T04:08:58.698Z,0.93
2023-01-01T04:11:46.268Z,1.43
2023-01-01T04:14:13.349Z,1.60
2023-01-01T04:16:40.550Z,1.47
2023-01-01T04:19:07.734Z,1.40
2023-01-01T04:21:34.896Z,1.30
2023-01-01T04:24:01.990Z,1.30
2023-01-01T04:26:29.038Z,1.63
2023-01-01T04:28:56.087Z,1.60
2023-01-01T04:31:23.124Z,2.00
2023-01-01T04:33:53.981Z,1.50
2023-01-01T04:36:21.016Z,1.30
2023-01-01T04:38:48.069Z,1.50
2023-01-01T04:41:15.108Z,1.37
2023-01-01T04:43:42.196Z,1.30
2023-01-01T04:46:09.690Z,1.30
2023-01-01T04:48:36.998Z,1.63
2023-01-01T04:51:05.447Z,1.40
2023-01-01T04:53:33.757Z,1.60
2023-01-01T04:56:07.997Z,1.50
2023-01-01T04:58:35.866Z,1.23
2023-01-01T05:01:02.986Z,1.53
2023-01-01T05:03:30.172Z,1.50
2023-01-01T05:06:04.896Z,1.37
2023-01-01T05:08:33.041Z,1.40
2023-01-01T05:11:01.695Z,1.30
2023-01-01T05:13:28.860Z,1.60
2023-01-01T05:15:56.370Z,1.33
2023-01-01T05:18:23.492Z,1.67
2023-01-01T05:20:50.575Z,1.60
2023-01-01T05:23:17.920Z,1.43
2023-01-01T05:25:44.989Z,1.40
2023-01-01T05:28:12.063Z,1.37
2023-01-01T05:30:41.938Z,1.47
2023-01-01T05:33:08.978Z,1.47
2023-01-01T05:35:36.402Z,1.47
2023-01-01T05:38:04.700Z,1.60
2023-01-01T05:40:32.051Z,1.30
2023-01-01T05:42:59.155Z,1.73
2023-01-01T05:45:26.290Z,1.23
2023-01-01T05:47:53.434Z,1.50
2023-01-01T05:50:20.596Z,1.50
2023-01-01T05:52:48.309Z,1.73
2023-01-01T05:55:15.445Z,1.70
2023-01-01T05:57:42.538Z,1.47
2023-01-01T06:00:10.023Z,1.43
2023-01-01T06:02:37.200Z,1.50
2023-01-01T06:05:04.415Z,1.50
2023-01-01T06:07:31.485Z,1.43
2023-01-01T06:09:58.598Z,1.77
2023-01-01T06:12:25.636Z,1.43
2023-01-01T06:14:52.707Z,1.43
2023-01-01T06:17:19.768Z,1.50
2023-01-01T06:19:46.882Z,1.50
2023-01-01T06:22:13.916Z,1.40
2023-01-01T06:24:40.993Z,1.37
2023-01-01T06:27:08.118Z,1.40
2023-01-01T06:29:35.212Z,1.73
2023-01-01T06:32:02.253Z,1.60
2023-01-01T06:34:29.292Z,1.50
2023-01-01T06:37:01.376Z,1.80
2023-01-01T06:39:31.767Z,1.43
2023-01-01T06:41:58.809Z,1.87
2023-01-01T06:44:25.847Z,1.93
2023-01-01T06:46:52.915Z,1.90
2023-01-01T06:49:19.981Z,1.60
2023-01-01T06:51:47.124Z,1.53
2023-01-01T06:54:14.182Z,1.97
2023-01-01T06:56:41.362Z,1.90
2023-01-01T06:59:08.432Z,2.10
2023-01-01T07:01:36.362Z,2.00
2023-01-01T07:04:05.188Z,2.00
2023-01-01T07:06:32.968Z,2.00
2023-01-01T07:09:00.152Z,2.20
2023-01-01T07:11:27.486Z,2.20
2023-01-01T07:13:54.648Z,1.97
2023-01-01T07:16:22.558Z,2.30
2023-01-01T07:18:50.584Z,2.30
2023-01-01T07:21:29.501Z,2.43
2023-01-01T07:23:57.650Z,2.30
2023-01-01T07:26:25.597Z,2.30
2023-01-01T07:28:52.672Z,2.30
2023-01-01T07:31:19.983Z,2.23
2023-01-01T07:33:47.125Z,2.47
2023-01-01T07:36:14.221Z,2.40
2023-01-01T07:38:41.298Z,2.50
2023-01-01T07:41:08.459Z,2.60
2023-01-01T07:43:35.542Z,2.80
2023-01-01T07:46:03.137Z,2.37
2023-01-01T07:48:33.421Z,2.57
2023-01-01T07:51:05.055Z,2.40
2023-01-01T07:53:32.083Z,2.67
2023-01-01T07:55:59.203Z,2.60
2023-01-01T07:58:26.287Z,2.60
2023-01-01T08:00:53.340Z,2.40
2023-01-01T08:03:20.470Z,2.60
2023-01-01T08:05:48.471Z,2.30
2023-01-01T08:08:15.573Z,2.50
2023-01-01T08:10:42.647Z,2.50
2023-01-01T08:13:10.333Z,2.37
2023-01-01T08:15:37.576Z,2.60
2023-01-01T08:18:05.947Z,2.57
2023-01-01T08:20:33.441Z,2.30
2023-01-01T08:23:06.682Z,2.37
2023-01-01T08:25:34.472Z,2.20
2023-01-01T08:28:01.540Z,2.60
2023-01-01T08:30:28.790Z,2.43
2023-01-01T08:32:55.925Z,2.37
2023-01-01T08:35:23.100Z,2.40
2023-01-01T08:37:50.183Z,2.40
2023-01-01T08:40:17.266Z,2.50
2023-01-01T08:42:44.322Z,2.13
2023-01-01T08:45:11.495Z,2.30
2023-01-01T08:47:38.585Z,2.50
2023-01-01T08:50:06.023Z,2.20
2023-01-01T08:52:33.140Z,2.77
2023-01-01T08:55:00.949Z,2.17
2023-01-01T08:57:30.638Z,2.60
2023-01-01T08:59:57.800Z,2.13
2023-01-01T09:02:25.013Z,2.00
2023-01-01T09:04:52.240Z,2.37
2023-01-01T09:07:19.309Z,1.90
2023-01-01T09:09:46.360Z,2.07
2023-01-01T09:12:15.896Z,2.10
2023-01-01T09:14:43.040Z,1.90
2023-01-01T09:17:10.064Z,1.93
2023-01-01T09:19:37.149Z,1.90
2023-01-01T09:22:04.221Z,2.00
2023-01-01T09:24:31.287Z,1.90
2023-01-01T09:26:58.323Z,2.07
2023-01-01T09:29:25.403Z,2.00
2023-01-01T09:31:52.495Z,1.83
2023-01-01T09:34:19.670Z,1.67
2023-01-01T09:36:47.092Z,2.00
2023-01-01T09:39:18.244Z,2.00
2023-01-01T09:41:45.264Z,1.83
2023-01-01T09:44:39.564Z,1.60
2023-01-01T09:47:14.824Z,1.90
2023-01-01T09:49:43.669Z,1.67
2023-01-01T09:52:12.269Z,1.60
2023-01-01T09:54:41.809Z,1.80
2023-01-01T09:57:18.052Z,2.00
2023-01-01T09:59:47.040Z,1.63
2023-01-01T10:02:14.099Z,1.90
2023-01-01T10:05:00.145Z,1.80
2023-01-01T10:07:50.591Z,2.10
2023-01-01T10:10:32.990Z,1.70
2023-01-01T10:13:00.024Z,1.57
2023-01-01T10:15:30.481Z,1.83
2023-01-01T10:18:03.977Z,1.60
2023-01-01T10:20:43.115Z,1.87
2023-01-01T10:23:16.959Z,1.70
2023-01-01T10:25:44.548Z,1.60
2023-01-01T10:28:30.039Z,1.60
2023-01-01T10:31:15.473Z,1.73
2023-01-01T10:33:43.285Z,1.53
2023-01-01T10:36:12.547Z,1.80
2023-01-01T10:38:40.896Z,1.90
2023-01-01T10:41:12.228Z,1.90
2023-01-01T10:43:46.119Z,1.70
2023-01-01T10:46:14.448Z,1.60
2023-01-01T10:48:42.742Z,1.50
2023-01-01T10:51:15.526Z,1.67
2023-01-01T10:53:43.769Z,1.57
2023-01-01T10:56:12.647Z,1.60
2023-01-01T10:58:42.471Z,1.63
2023-01-01T11:01:11.329Z,1.47
2023-01-01T11:03:38.780Z,1.60
2023-01-01T11:06:35.238Z,1.80
2023-01-01T11:09:05.266Z,1.50
2023-01-01T11:11:52.590Z,1.70
2023-01-01T11:14:26.043Z,1.60
2023-01-01T11:16:53.946Z,1.60
2023-01-01T11:19:23.468Z,1.80
2023-01-01T11:21:50.584Z,1.53
2023-01-01T11:24:19.652Z,1.60
2023-01-01T11:26:53.900Z,1.53
2023-01-01T11:29:22.491Z,1.70
2023-01-01T11:31:49.800Z,1.50
2023-01-01T11:34:29.109Z,1.50
2023-01-01T11:37:08.287Z,1.90
2023-01-01T11:39:37.339Z,1.60
2023-01-01T11:42:05.332Z,1.80
2023-01-01T11:44:44.629Z,1.87
2023-01-01T11:47:23.802Z,1.60
2023-01-01T11:49:55.233Z,1.53
2023-01-01T11:52:48.724Z,1.50
2023-01-01T11:55:25.064Z,1.80
2023-01-01T11:57:58.220Z,1.63
2023-01-01T12:00:25.449Z,1.80
2023-01-01T12:02:59.089Z,1.67
2023-01-01T12:05:38.380Z,1.63
2023-01-01T12:08:07.167Z,1.57
2023-01-01T12:10:41.093Z,1.50
2023-01-01T12:13:12.058Z,1.27
2023-01-01T12:15:48.563Z,1.47
2023-01-01T12:18:31.467Z,1.53
2023-01-01T12:21:04.188Z,1.83
2023-01-01T12:23:32.361Z,1.63
2023-01-01T12:26:11.791Z,1.50
2023-01-01T12:28:49.492Z,1.60
2023-01-01T12:31:16.540Z,1.70
2023-01-01T12:34:02.178Z,1.67
2023-01-01T12:36:38.250Z,2.00
2023-01-01T12:39:28.064Z,1.60
2023-01-01T12:41:55.085Z,1.40
2023-01-01T12:44:40.656Z,2.10
2023-01-01T12:47:07.699Z,2.03
2023-01-01T12:50:07.622Z,1.70
2023-01-01T12:52:59.064Z,1.80
2023-01-01T12:55:26.205Z,2.03
2023-01-01T12:58:01.315Z,2.00
2023-01-01T13:00:29.222Z,1.77
2023-01-01T13:02:58.998Z,1.93
2023-01-01T13:05:43.255Z,1.80
2023-01-01T13:08:10.447Z,1.93
2023-01-01T13:10:39.102Z,1.33
2023-01-01T13:13:06.870Z,1.77
2023-01-01T13:15:44.141Z,1.93
2023-01-01T13:18:14.244Z,1.80
2023-01-01T13:21:02.344Z,1.50
2023-01-01T13:23:33.344Z,1.60
2023-01-01T13:26:21.632Z,1.73
2023-01-01T13:28:57.846Z,1.90
2023-01-01T13:31:42.944Z,1.70
2023-01-01T13:34:28.636Z,1.87
2023-01-01T13:37:11.116Z,1.80
2023-01-01T13:39:57.294Z,1.97
2023-01-01T13:42:43.072Z,2.10
2023-01-01T13:46:01.117Z,2.33
2023-01-01T13:48:15.955Z,1.97
2023-01-01T13:51:01.533Z,2.53
2023-01-01T13:53:31.680Z,1.80
2023-01-01T13:56:06.704Z,1.80
2023-01-01T13:58:45.428Z,1.90
2023-01-01T14:01:12.666Z,1.73
2023-01-01T14:03:42.629Z,1.70
2023-01-01T14:06:12.585Z,2.00
2023-01-01T14:08:40.260Z,1.70
2023-01-01T14:11:20.691Z,1.87
2023-01-01T14:13:47.953Z,2.00
2023-01-01T14:16:15.966Z,1.90
2023-01-01T14:18:43.069Z,1.63
2023-01-01T14:21:14.417Z,1.90
2023-01-01T14:23:43.777Z,1.90
2023-01-01T14:26:12.819Z,1.97
2023-01-01T14:28:40.315Z,1.80
2023-01-01T14:31:11.498Z,1.83
2023-01-01T14:33:39.632Z,1.97
2023-01-01T14:36:14.939Z,2.10
2023-01-01T14:38:46.094Z,1.77
2023-01-01T14:41:33.019Z,2.20
2023-01-01T14:44:17.225Z,2.03
2023-01-01T14:46:48.221Z,1.70
2023-01-01T14:49:23.420Z,2.10
2023-01-01T14:51:54.299Z,2.07
2023-01-01T14:54:22.648Z,2.07
2023-01-01T14:56:51.337Z,2.00
2023-01-01T14:59:24.653Z,2.03
2023-01-01T15:02:10.501Z,2.13
2023-01-01T15:04:37.651Z,2.13
2023-01-01T15:07:05.292Z,2.17
2023-01-01T15:09:32.900Z,2.03
2023-01-01T15:12:00.523Z,2.20
2023-01-01T15:14:36.582Z,2.00
2023-01-01T15:17:10.976Z,2.30
2023-01-01T15:19:38.647Z,1.97
2023-01-01T15:22:10.234Z,2.00
2023-01-01T15:24:38.188Z,2.20
2023-01-01T15:27:06.679Z,2.30
2023-01-01T15:29:34.482Z,2.30
2023-01-01T15:32:02.734Z,2.23
2023-01-01T15:34:33.105Z,2.30
2023-01-01T15:37:13.243Z,2.40
2023-01-01T15:39:51.669Z,2.23
2023-01-01T15:42:38.489Z,2.20
2023-01-01T15:45:14.371Z,2.23
2023-01-01T15:47:41.938Z,2.03
2023-01-01T15:50:14.556Z,2.13
2023-01-01T15:52:43.221Z,2.70
2023-01-01T15:55:17.013Z,2.30
2023-01-01T15:57:48.329Z,2.13
2023-01-01T16:00:26.132Z,2.37
2023-01-01T16:02:54.821Z,2.60
2023-01-01T16:05:24.079Z,2.50
2023-01-01T16:08:04.955Z,2.93
2023-01-01T16:10:32.408Z,2.30
2023-01-01T16:12:59.901Z,2.47
2023-01-01T16:15:27.179Z,2.30
2023-01-01T16:17:55.115Z,2.20
2023-01-01T16:20:22.591Z,1.90
2023-01-01T16:22:49.669Z,2.20
2023-01-01T16:25:18.296Z,2.53
2023-01-01T16:27:45.613Z,2.10
2023-01-01T16:30:13.666Z,2.20
2023-01-01T16:32:41.029Z,2.40
2023-01-01T16:35:12.167Z,2.30
2023-01-01T16:37:39.705Z,2.50
2023-01-01T16:40:07.529Z,3.03
2023-01-01T16:42:34.617Z,3.60
2023-01-01T16:45:01.719Z,3.23
2023-01-01T16:47:28.821Z,3.97
2023-01-01T16:49:55.866Z,2.97
2023-01-01T16:52:22.927Z,2.70
2023-01-01T16:54:49.975Z,2.83
2023-01-01T16:57:17.023Z,2.60
2023-01-01T16:59:44.099Z,2.80
2023-01-01T17:02:11.808Z,2.77
2023-01-01T17:04:38.932Z,2.33
2023-01-01T17:07:06.063Z,2.80
2023-01-01T17:09:33.169Z,2.57
2023-01-01T17:12:00.322Z,2.80
2023-01-01T17:14:27.447Z,2.63
2023-01-01T17:16:56.353Z,2.57
2023-01-01T17:19:23.575Z,2.47
2023-01-01T17:21:50.858Z,2.47
2023-01-01T17:24:19.243Z,3.47
2023-01-01T17:26:46.679Z,2.97
2023-01-01T17:29:13.754Z,2.73
2023-01-01T17:31:40.844Z,2.77
2023-01-01T17:34:11.892Z,2.70
2023-01-01T17:36:41.253Z,2.53
2023-01-01T17:39:09.234Z,2.40
2023-01-01T17:41:37.902Z,2.20
2023-01-01T17:44:05.204Z,2.27
2023-01-01T17:46:33.100Z,2.17
2023-01-01T17:49:00.686Z,2.00
2023-01-01T17:51:27.908Z,2.50
2023-01-01T17:53:55.770Z,2.23
2023-01-01T17:56:23.847Z,1.97
2023-01-01T17:58:52.482Z,2.20
2023-01-01T18:01:22.814Z,1.93
2023-01-01T18:03:51.195Z,3.20
2023-01-01T18:06:18.673Z,2.40
2023-01-01T18:08:45.752Z,3.03
2023-01-01T18:11:12.825Z,3.20
2023-01-01T18:13:39.890Z,3.10
2023-01-01T18:16:08.305Z,2.57
2023-01-01T18:18:38.847Z,3.17
2023-01-01T18:21:07.011Z,3.70
2023-01-01T18:23:39.715Z,3.50
2023-01-01T18:26:08.597Z,2.80
2023-01-01T18:28:35.663Z,2.77
2023-01-01T18:31:10.499Z,2.43
2023-01-01T18:33:37.678Z,2.80
2023-01-01T18:36:12.133Z,2.40
2023-01-01T18:38:40.009Z,2.43
2023-01-01T18:41:09.835Z,2.37
2023-01-01T18:43:36.900Z,2.40
2023-01-01T18:46:08.495Z,2.43
2023-01-01T18:48:35.725Z,2.30
2023-01-01T18:51:02.883Z,2.07
2023-01-01T18:53:31.109Z,2.33
2023-01-01T18:56:01.610Z,2.40
2023-01-01T18:58:30.338Z,2.30
2023-01-01T19:00:57.558Z,2.40
2023-01-01T19:03:37.522Z,2.50
2023-01-01T19:06:17.002Z,2.37
2023-01-01T19:08:44.282Z,2.50
2023-01-01T19:11:12.938Z,2.53
2023-01-01T19:13:40.538Z,2.60
2023-01-01T19:16:13.775Z,2.80
2023-01-01T19:18:41.796Z,2.40
2023-01-01T19:21:08.891Z,2.43
2023-01-01T19:23:38.745Z,2.30
2023-01-01T19:26:06.786Z,2.27
2023-01-01T19:28:34.972Z,2.60
2023-01-01T19:31:02.785Z,2.20
2023-01-01T19:33:30.141Z,2.30
2023-01-01T19:35:57.530Z,2.20
2023-01-01T19:38:24.842Z,2.30
2023-01-01T19:40:51.986Z,2.90
2023-01-01T19:43:19.159Z,2.90
2023-01-01T19:45:46.276Z,3.20
2023-01-01T19:48:13.385Z,3.20
2023-01-01T19:50:40.490Z,3.50
2023-01-01T19:53:07.585Z,3.20
2023-01-01T19:55:34.728Z,2.87
2023-01-01T19:58:01.881Z,3.50
2023-01-01T20:00:29.084Z,3.13
2023-01-01T20:02:56.399Z,2.70
2023-01-01T20:05:23.685Z,2.80
2023-01-01T20:07:50.975Z,2.77
2023-01-01T20:10:18.095Z,2.80
2023-01-01T20:12:45.633Z,2.73
2023-01-01T20:15:15.851Z,2.93
2023-01-01T20:17:43.055Z,2.70
2023-01-01T20:20:11.474Z,2.87
2023-01-01T20:22:38.693Z,2.67
2023-01-01T20:25:06.041Z,3.10
2023-01-01T20:27:33.189Z,2.80
2023-01-01T20:30:00.306Z,3.10
2023-01-01T20:32:28.450Z,3.40
2023-01-01T20:34:55.604Z,3.30
2023-01-01T20:37:38.088Z,3.10
2023-01-01T20:40:06.446Z,3.30
2023-01-01T20:42:33.761Z,3.30
2023-01-01T20:45:00.823Z,3.20
2023-01-01T20:47:27.926Z,3.17
2023-01-01T20:49:55.026Z,3.17
2023-01-01T20:52:22.217Z,3.40
2023-01-01T20:54:49.280Z,3.40
2023-01-01T20:57:16.566Z,3.50
2023-01-01T20:59:43.649Z,3.50
2023-01-01T21:02:11.721Z,3.50
2023-01-01T21:04:40.081Z,3.70
2023-01-01T21:07:11.778Z,3.30
2023-01-01T21:09:39.254Z,3.70
2023-01-01T21:12:07.033Z,3.80
2023-01-01T21:14:34.170Z,3.80
2023-01-01T21:17:01.591Z,3.60
2023-01-01T21:19:28.958Z,3.80
2023-01-01T21:21:56.931Z,3.47
2023-01-01T21:24:28.574Z,3.80
2023-01-01T21:26:56.870Z,3.90
2023-01-01T21:29:24.897Z,3.90
2023-01-01T21:32:05.403Z,3.87
2023-01-01T21:34:41.446Z,3.50
2023-01-01T21:37:11.502Z,3.13
2023-01-01T21:39:38.604Z,3.30
2023-01-01T21:42:23.835Z,3.27
2023-01-01T21:44:56.797Z,3.90
2023-01-01T21:47:24.509Z,3.67
2023-01-01T21:49:53.871Z,3.40
2023-01-01T21:52:22.994Z,3.53
2023-01-01T21:54:52.637Z,3.47
2023-01-01T21:57:22.203Z,3.20
2023-01-01T21:59:49.754Z,2.80
2023-01-01T22:02:31.561Z,3.20
2023-01-01T22:05:00.105Z,3.33
2023-01-01T22:10:19.531Z,2.93
2023-01-01T22:12:47.386Z,3.13
2023-01-01T22:15:26.828Z,2.90
2023-01-01T22:18:13.909Z,2.93
2023-01-01T22:20:42.484Z,2.80
2023-01-01T22:23:23.273Z,3.10
2023-01-01T22:25:50.350Z,2.83
2023-01-01T22:28:27.896Z,3.07
2023-01-01T22:31:01.703Z,3.00
2023-01-01T22:33:34.027Z,2.97
2023-01-01T22:36:01.093Z,2.90
2023-01-01T22:38:32.772Z,3.10
2023-01-01T22:41:00.397Z,3.00
2023-01-01T22:43:31.140Z,2.80
2023-01-01T22:45:58.514Z,2.87
2023-01-01T22:48:33.480Z,2.80
2023-01-01T22:51:02.741Z,2.70
2023-01-01T22:53:29.837Z,3.07
2023-01-01T22:55:56.964Z,2.97
2023-01-01T22:58:24.042Z,3.10
2023-01-01T23:00:51.168Z,3.30
2023-01-01T23:03:18.277Z,3.40
2023-01-01T23:05:45.406Z,2.93
2023-01-01T23:08:12.485Z,3.07
2023-01-01T23:10:39.519Z,3.10
2023-01-01T23:13:25.418Z,3.20
2023-01-01T23:16:01.899Z,3.20
2023-01-01T23:18:33.367Z,3.37
2023-01-01T23:21:05.507Z,3.30
2023-01-01T23:23:32.796Z,2.93
2023-01-01T23:26:01.055Z,3.20
2023-01-01T23:28:29.133Z,3.30
2023-01-01T23:30:57.015Z,3.33
2023-01-01T23:33:24.127Z,2.97
2023-01-01T23:35:51.714Z,3.20
2023-01-01T23:38:18.864Z,3.30
2023-01-01T23:40:45.922Z,3.27
2023-01-01T23:43:12.982Z,2.87
2023-01-01T23:45:40.226Z,3.23
2023-01-01T23:48:08.294Z,3.50
2023-01-01T23:50:35.513Z,3.43
2023-01-01T23:53:02.672Z,3.23
2023-01-01T23:55:29.726Z,3.43
2023-01-01T23:57:56.760Z,3.50
